Time;durP1;ratioP1;P1;durP2;ratioP2;P2;SDS_P1;SDS_P2;PMS_P1;PMS_P2;Temp;Humidity;BMP_temperature;BMP_pressure;BME280_temperature;BME280_humidity;BME280_pressure;Samples;Min_cycle;Max_cycle;Signal;HPM_P1;HPM_P2
2022/04/21 00:01:15;;;;;;;11.70;5.17;;;8.30;37.60;;;;;;5005104;28;20553;-83
2022/04/21 00:03:45;;;;;;;7.47;4.50;;;8.50;38.40;;;;;;5005709;28;20454;-83
2022/04/21 00:06:24;;;;;;;7.20;3.90;;;8.50;37.40;;;;;;5005751;28;20497;-83
2022/04/21 00:08:51;;;;;;;6.60;3.80;;;8.40;39.10;;;;;;5004865;28;21009;-83
2022/04/21 00:11:18;;;;;;;8.00;5.20;;;8.20;40.60;;;;;;5006148;28;20542;-83
2022/04/21 00:13:44;;;;;;;7.43;5.03;;;8.10;42.00;;;;;;5004541;28;20457;-83
2022/04/21 00:16:12;;;;;;;7.40;5.17;;;7.80;43.60;;;;;;5004332;28;20492;-83
2022/04/21 00:18:39;;;;;;;7.93;5.43;;;8.00;43.10;;;;;;5001796;28;20883;-83
2022/04/21 00:21:06;;;;;;;7.03;4.67;;;8.20;42.00;;;;;;5003673;28;20860;-83
2022/04/21 00:23:33;;;;;;;6.47;4.40;;;8.20;40.80;;;;;;5003320;28;20458;-82
2022/04/21 00:26:02;;;;;;;8.40;4.47;;;8.40;38.70;;;;;;5004059;28;20454;-83
2022/04/21 00:28:30;;;;;;;7.37;4.50;;;8.60;37.80;;;;;;5001532;28;22204;-82
2022/04/21 00:30:57;;;;;;;8.60;4.67;;;8.60;37.20;;;;;;5002869;28;21002;-83
2022/04/21 00:33:24;;;;;;;6.67;4.60;;;8.60;37.10;;;;;;5003042;28;20456;-83
2022/04/21 00:35:50;;;;;;;11.80;5.27;;;8.70;36.90;;;;;;5004045;28;20454;-83
2022/04/21 00:38:17;;;;;;;8.10;4.87;;;8.60;36.90;;;;;;5003165;28;20454;-83
2022/04/21 00:40:45;;;;;;;11.50;5.60;;;8.60;36.80;;;;;;5003351;28;20474;-83
2022/04/21 00:43:12;;;;;;;9.57;4.90;;;8.50;37.70;;;;;;5003265;28;20456;-83
2022/04/21 00:45:39;;;;;;;7.80;4.23;;;8.50;38.40;;;;;;5004173;28;20454;-83
2022/04/21 00:48:07;;;;;;;8.93;4.77;;;8.20;39.60;;;;;;5004369;28;20473;-82
2022/04/21 00:50:37;;;;;;;11.17;5.10;;;7.90;41.90;;;;;;5001198;28;20910;-83
2022/04/21 00:53:04;;;;;;;6.87;4.30;;;7.70;42.90;;;;;;5004025;28;20529;-82
2022/04/21 00:55:32;;;;;;;8.40;5.00;;;7.50;44.40;;;;;;5004741;28;20453;-83
2022/04/21 00:58:05;;;;;;;6.97;4.67;;;7.30;46.90;;;;;;5003969;28;20552;-83
2022/04/21 01:00:32;;;;;;;8.40;5.47;;;7.30;47.70;;;;;;5004522;28;20478;-82
2022/04/21 01:02:58;;;;;;;7.73;5.63;;;7.00;50.80;;;;;;5003924;28;20457;-83
2022/04/21 01:05:29;;;;;;;6.80;4.80;;;6.90;52.50;;;;;;5003313;28;20494;-83
2022/04/21 01:07:56;;;;;;;6.40;4.90;;;6.90;52.90;;;;;;5003663;28;20513;-83
2022/04/21 01:10:23;;;;;;;11.30;6.53;;;6.60;55.00;;;;;;5003705;28;20466;-83
2022/04/21 01:12:51;;;;;;;7.80;5.43;;;6.70;57.90;;;;;;5004401;28;20446;-83
2022/04/21 01:15:19;;;;;;;7.53;5.60;;;6.60;57.90;;;;;;5003841;28;20450;-83
2022/04/21 01:17:46;;;;;;;10.33;6.03;;;6.60;60.10;;;;;;5003470;28;20478;-83
2022/04/21 01:20:19;;;;;;;10.60;6.73;;;6.40;60.90;;;;;;5003600;28;20482;-83
2022/04/21 01:22:45;;;;;;;8.47;6.10;;;6.30;63.40;;;;;;5003248;28;20489;-83
2022/04/21 01:25:13;;;;;;;7.20;6.40;;;6.30;64.10;;;;;;5003897;28;20809;-83
2022/04/21 01:27:41;;;;;;;9.70;7.80;;;6.10;66.10;;;;;;5003227;28;21092;-83
2022/04/21 01:30:09;;;;;;;10.63;9.73;;;6.10;69.50;;;;;;5003078;28;20478;-82
2022/04/21 01:32:37;;;;;;;14.37;12.43;;;6.00;71.20;;;;;;5004017;28;20454;-83
2022/04/21 01:35:06;;;;;;;13.70;12.70;;;6.00;72.20;;;;;;5004027;28;20481;-83
2022/04/21 01:43:19;;;;;;;21.87;20.37;;;5.70;76.80;;;;;;4981967;28;20482;-83
2022/04/21 01:45:50;;;;;;;22.50;21.07;;;5.70;79.20;;;;;;4981518;28;20558;-83
2022/04/21 01:48:17;;;;;;;24.80;23.20;;;5.70;80.50;;;;;;4991925;28;20532;-83
2022/04/21 01:50:48;;;;;;;20.90;19.27;;;5.60;80.80;;;;;;4987796;23;20484;-80
2022/04/21 01:53:22;;;;;;;21.50;20.07;;;5.60;81.20;;;;;;4939889;29;20490;-81
2022/04/21 01:55:53;;;;;;;17.70;16.50;;;5.60;80.80;;;;;;4939928;29;20467;-81
2022/04/21 01:58:34;;;;;;;12.77;11.63;;;5.80;79.80;;;;;;4939218;29;20894;-80
2022/04/21 02:01:01;;;;;;;17.40;10.57;;;6.10;76.40;;;;;;4953161;29;21007;-81
2022/04/21 02:03:30;;;;;;;14.53;7.57;;;6.40;74.10;;;;;;4957568;28;20483;-80
2022/04/21 02:05:57;;;;;;;12.63;8.10;;;6.70;70.00;;;;;;4957271;28;20467;-80
2022/04/21 02:08:28;;;;;;;8.60;5.90;;;6.70;68.50;;;;;;4957119;28;20479;-81
2022/04/21 02:10:55;;;;;;;11.10;5.50;;;6.60;69.10;;;;;;4957574;28;20488;-82
2022/04/21 02:13:21;;;;;;;16.50;6.50;;;6.80;66.10;;;;;;4957868;28;20456;-80
2022/04/21 02:15:48;;;;;;;6.47;5.27;;;6.70;65.30;;;;;;4957778;28;20897;-81
2022/04/21 02:18:17;;;;;;;8.50;6.13;;;6.50;65.20;;;;;;4956751;28;20460;-80
2022/04/21 02:20:43;;;;;;;11.67;6.33;;;6.40;66.30;;;;;;4957771;28;21031;-81
2022/04/21 02:23:10;;;;;;;7.70;5.30;;;6.40;67.00;;;;;;4957785;29;20456;-81
2022/04/21 02:25:38;;;;;;;17.03;7.13;;;6.10;68.20;;;;;;4957711;29;20463;-81
2022/04/21 02:28:07;;;;;;;10.50;7.23;;;6.00;69.40;;;;;;4957165;29;20483;-79
2022/04/21 02:30:34;;;;;;;8.77;7.40;;;6.00;70.70;;;;;;4958020;28;20488;-81
2022/04/21 02:33:01;;;;;;;10.60;9.13;;;5.80;72.90;;;;;;4958187;29;20844;-81
2022/04/21 02:35:28;;;;;;;14.23;13.13;;;5.80;74.40;;;;;;4957847;29;20462;-81
2022/04/21 02:37:55;;;;;;;17.03;15.60;;;5.60;77.50;;;;;;4957655;28;20506;-84
2022/04/21 02:40:22;;;;;;;23.73;22.10;;;5.50;78.30;;;;;;4957397;29;20482;-81
2022/04/21 02:42:50;;;;;;;39.10;36.40;;;5.40;80.00;;;;;;4957832;28;20451;-80
2022/04/21 02:45:16;;;;;;;37.93;36.10;;;5.40;82.00;;;;;;4957449;28;20460;-81
2022/04/21 02:47:47;;;;;;;62.70;60.17;;;5.20;82.00;;;;;;4957111;28;20475;-80
2022/04/21 02:50:17;;;;;;;77.07;73.87;;;5.10;83.80;;;;;;4956484;29;20483;-81
2022/04/21 02:52:44;;;;;;;109.17;105.07;;;5.10;85.50;;;;;;4957967;29;20452;-80
2022/04/21 02:57:58;;;;;;;149.67;143.67;;;4.90;88.90;;;;;;4957682;29;20943;-80
2022/04/21 03:00:25;;;;;;;166.10;160.23;;;4.80;90.90;;;;;;4957539;29;20475;-80
2022/04/21 03:02:52;;;;;;;175.20;169.10;;;4.70;91.50;;;;;;4956937;29;20471;-80
2022/04/21 03:05:19;;;;;;;214.47;207.17;;;4.60;91.50;;;;;;4956702;29;20456;-80
2022/04/21 03:07:45;;;;;;;262.23;252.73;;;4.60;91.90;;;;;;4957108;29;20556;-80
2022/04/21 03:10:12;;;;;;;277.47;266.43;;;4.50;93.20;;;;;;4955950;29;20482;-80
2022/04/21 03:12:39;;;;;;;314.03;302.33;;;4.40;94.70;;;;;;4957271;28;20456;-82
2022/04/21 03:15:12;;;;;;;292.13;281.03;;;4.40;95.00;;;;;;4957048;29;20454;-80
2022/04/21 03:17:39;;;;;;;304.63;293.10;;;4.20;95.80;;;;;;4956723;29;20451;-80
2022/04/21 03:20:06;;;;;;;312.27;300.23;;;4.30;95.90;;;;;;4955307;28;20487;-81
2022/04/21 03:25:17;;;;;;;311.20;299.20;;;4.20;96.80;;;;;;4955405;29;20447;-80
2022/04/21 03:27:48;;;;;;;369.20;354.33;;;4.10;96.90;;;;;;4955779;28;20476;-80
2022/04/21 03:30:16;;;;;;;324.17;311.30;;;4.10;98.10;;;;;;4953365;29;20478;-81
2022/04/21 03:32:43;;;;;;;262.23;252.13;;;4.10;98.90;;;;;;4955999;28;20550;-80
2022/04/21 03:35:12;;;;;;;371.37;356.50;;;4.00;98.70;;;;;;4959304;29;20456;-81
2022/04/21 03:37:39;;;;;;;408.03;391.53;;;4.00;99.30;;;;;;4955796;29;20460;-81
2022/04/21 03:40:07;;;;;;;369.30;354.77;;;4.00;99.60;;;;;;4956623;28;20476;-81
2022/04/21 03:42:33;;;;;;;309.40;297.60;;;3.90;99.30;;;;;;4947242;28;20849;-81
2022/04/21 03:45:00;;;;;;;265.27;255.27;;;3.90;99.10;;;;;;4955592;29;20978;-81
2022/04/21 03:47:34;;;;;;;258.00;247.97;;;3.90;99.40;;;;;;4958206;29;20565;-82
2022/04/21 03:50:01;;;;;;;253.70;244.03;;;3.80;99.80;;;;;;4957458;29;20484;-81
2022/04/21 03:52:27;;;;;;;380.77;364.93;;;3.70;99.20;;;;;;4957818;28;20808;-81
2022/04/21 03:54:54;;;;;;;354.27;338.87;;;3.60;99.90;;;;;;4961031;28;20463;-82
2022/04/21 03:57:21;;;;;;;464.47;444.53;;;3.70;99.90;;;;;;4961215;28;20455;-81
2022/04/21 03:59:49;;;;;;;347.80;332.30;;;3.70;99.90;;;;;;4961443;28;20487;-83
2022/04/21 04:02:17;;;;;;;353.70;339.13;;;3.70;99.90;;;;;;4963184;28;20464;-81
2022/04/21 04:04:45;;;;;;;302.33;289.80;;;3.70;99.90;;;;;;4961032;29;20470;-82
2022/04/21 04:12:46;;;;;;;348.87;334.17;;;3.60;99.90;;;;;;4941798;29;20444;-80
2022/04/21 04:15:13;;;;;;;409.63;392.13;;;3.60;99.90;;;;;;4943603;29;20472;-81
2022/04/21 04:17:40;;;;;;;383.17;366.07;;;3.60;99.90;;;;;;4958565;29;20455;-83
2022/04/21 04:20:10;;;;;;;353.23;338.03;;;3.50;99.90;;;;;;4957668;29;20476;-82
2022/04/21 04:22:37;;;;;;;345.63;330.83;;;3.50;99.90;;;;;;4964281;28;20451;-81
2022/04/21 04:25:04;;;;;;;423.13;404.53;;;3.40;99.90;;;;;;4963703;29;20456;-81
2022/04/21 04:27:31;;;;;;;355.53;339.53;;;3.60;99.90;;;;;;4962421;29;20483;-81
2022/04/21 04:29:57;;;;;;;418.20;399.00;;;3.60;99.90;;;;;;4963000;29;21012;-82
2022/04/21 04:32:24;;;;;;;450.07;428.87;;;3.60;99.90;;;;;;4962403;29;20463;-83
2022/04/21 04:34:51;;;;;;;545.70;518.53;;;3.70;99.90;;;;;;4962608;29;20451;-81
2022/04/21 04:37:19;;;;;;;503.87;479.63;;;3.90;99.90;;;;;;4961089;29;20839;-81
2022/04/21 04:39:45;;;;;;;491.80;468.63;;;3.90;99.90;;;;;;4960510;28;20527;-82
2022/04/21 04:42:17;;;;;;;465.87;445.43;;;3.90;99.90;;;;;;4963243;29;20455;-82
2022/04/21 04:44:44;;;;;;;508.93;485.40;;;3.90;99.90;;;;;;4964294;28;20491;-81
2022/04/21 04:47:10;;;;;;;538.00;513.30;;;3.90;99.90;;;;;;4961897;28;20458;-84
2022/04/21 04:49:36;;;;;;;460.70;440.53;;;4.00;99.90;;;;;;4961841;28;20460;-81
2022/04/21 04:52:04;;;;;;;539.73;515.67;;;3.80;99.90;;;;;;4962998;29;20201;-81
2022/04/21 04:54:32;;;;;;;585.80;558.10;;;3.90;99.90;;;;;;4962981;29;20471;-81
2022/04/21 04:56:59;;;;;;;630.63;598.97;;;3.90;99.90;;;;;;4962895;29;20451;-81
2022/04/21 04:59:27;;;;;;;667.10;631.30;;;3.90;99.90;;;;;;4962180;29;20541;-81
2022/04/21 05:01:54;;;;;;;684.87;647.97;;;4.00;99.90;;;;;;4962899;29;20459;-81
2022/04/21 05:04:21;;;;;;;638.43;604.83;;;4.10;99.90;;;;;;4962296;28;20462;-81
2022/04/21 05:06:50;;;;;;;572.20;542.97;;;4.10;99.90;;;;;;4962945;28;20471;-81
2022/04/21 05:09:18;;;;;;;477.83;454.93;;;4.20;99.90;;;;;;4959093;29;20870;-81
2022/04/21 05:11:48;;;;;;;543.57;516.47;;;4.20;99.90;;;;;;4964009;28;20960;-81
2022/04/21 05:14:16;;;;;;;648.23;614.20;;;4.30;99.90;;;;;;4964272;29;20479;-81
2022/04/21 05:16:43;;;;;;;615.30;583.87;;;4.40;99.90;;;;;;4962657;28;20452;-85
2022/04/21 05:19:13;;;;;;;603.37;573.97;;;4.50;99.90;;;;;;4961988;28;20487;-84
2022/04/21 05:21:41;;;;;;;525.20;501.37;;;4.60;99.90;;;;;;4962677;29;20507;-82
2022/04/21 05:24:10;;;;;;;482.00;461.23;;;4.50;99.90;;;;;;4959641;29;20456;-83
2022/04/21 05:26:37;;;;;;;391.03;374.70;;;4.70;99.90;;;;;;4960081;28;20876;-81
2022/04/21 05:30:55;;;;;;;240.20;230.77;;;5.10;99.90;;;;;;4960872;28;20475;-81
2022/04/21 05:31:57;;;;;;;137.80;131.87;;;5.40;99.90;;;;;;4953076;29;20985;-81
2022/04/21 05:34:27;;;;;;;23.90;21.80;;;5.90;99.90;;;;;;4961777;28;20471;-82
2022/04/21 05:37:02;;;;;;;14.70;13.50;;;6.30;99.90;;;;;;4963656;29;20484;-81
2022/04/21 05:43:25;;;;;;;10.93;7.60;;;7.00;94.20;;;;;;4959642;28;20454;-82
2022/04/21 05:53:18;;;;;;;;;;;;;;;;;;;;;
2022/04/21 05:56:35;;;;;;;;;;;;;;;;;;;;;
2022/04/21 06:03:25;;;;;;;;;;;;;;;;;;;;;
2022/04/21 06:06:13;;;;;;;17.63;9.90;;;8.80;88.30;;;;;;4909635;29;20460;-82
2022/04/21 06:08:45;;;;;;;12.83;9.07;;;8.70;86.90;;;;;;4964269;29;21016;-83
2022/04/21 06:11:52;;;;;;;16.70;9.00;;;8.90;83.40;;;;;;4965216;28;20484;-83
2022/04/21 06:14:30;;;;;;;12.40;9.50;;;8.80;79.90;;;;;;4951307;29;20460;-81
2022/04/21 06:17:12;;;;;;;10.60;8.90;;;8.90;82.80;;;;;;4960820;28;20566;-81
2022/04/21 06:19:57;;;;;;;13.33;9.67;;;9.00;80.80;;;;;;4960266;28;20925;-81
2022/04/21 06:22:30;;;;;;;14.47;8.27;;;8.90;78.40;;;;;;4962094;28;20448;-82
2022/04/21 06:25:20;;;;;;;11.50;8.90;;;9.10;78.90;;;;;;4960646;28;20462;-82
2022/04/21 06:27:47;;;;;;;10.53;7.40;;;9.10;73.20;;;;;;4960755;28;20483;-82
2022/04/21 06:30:16;;;;;;;16.77;9.03;;;9.20;69.70;;;;;;4957078;28;20460;-82
2022/04/21 06:32:45;;;;;;;13.03;8.90;;;9.40;71.70;;;;;;4960878;28;20539;-82
2022/04/21 06:35:16;;;;;;;13.50;8.73;;;9.60;69.70;;;;;;4959863;28;20531;-82
2022/04/21 06:37:43;;;;;;;12.90;8.87;;;9.50;65.80;;;;;;4961454;28;20519;-82
2022/04/21 06:40:49;;;;;;;10.80;7.67;;;9.70;67.50;;;;;;4959795;28;20482;-82
2022/04/21 06:49:19;;;;;;;12.07;7.67;;;10.10;61.10;;;;;;4959374;28;20490;-80
2022/04/21 06:52:19;;;;;;;10.13;6.37;;;10.20;56.40;;;;;;4959690;28;20472;-82
2022/04/21 06:54:48;;;;;;;9.97;6.07;;;10.50;46.60;;;;;;4960416;28;20762;-81
2022/04/21 06:57:31;;;;;;;10.00;6.37;;;10.70;46.80;;;;;;4960389;28;20456;-81
2022/04/21 07:00:00;;;;;;;10.20;5.87;;;10.70;46.00;;;;;;4959741;28;20479;-82
2022/04/21 07:02:42;;;;;;;8.50;5.23;;;11.00;44.30;;;;;;4959979;28;20460;-83
2022/04/21 07:05:37;;;;;;;15.50;6.57;;;11.10;43.60;;;;;;4959936;28;20464;-82
2022/04/21 07:08:25;;;;;;;9.00;5.73;;;11.30;38.40;;;;;;4960168;28;20507;-82
2022/04/21 07:17:18;;;;;;;8.93;5.00;;;11.60;33.00;;;;;;4960974;28;20463;-83
2022/04/21 07:19:45;;;;;;;14.40;5.50;;;11.70;29.90;;;;;;4959452;28;20491;-83
2022/04/21 07:22:12;;;;;;;9.43;5.93;;;11.80;29.40;;;;;;4960682;28;20459;-82
2022/04/21 07:24:40;;;;;;;9.97;5.80;;;11.70;30.80;;;;;;4960513;28;20451;-86
2022/04/21 07:27:07;;;;;;;12.77;6.23;;;12.00;28.50;;;;;;4960260;28;20452;-82
2022/04/21 07:29:35;;;;;;;9.23;6.40;;;12.10;29.70;;;;;;4961040;28;20463;-82
2022/04/21 07:32:02;;;;;;;12.20;6.57;;;12.20;29.20;;;;;;4963283;28;20452;-82
2022/04/21 07:34:29;;;;;;;13.50;6.23;;;12.30;31.00;;;;;;4963711;28;20645;-82
2022/04/21 07:36:56;;;;;;;9.60;6.33;;;12.40;28.70;;;;;;4963624;28;20455;-81
2022/04/21 07:39:22;;;;;;;10.13;6.27;;;12.40;29.40;;;;;;4961746;28;20483;-83
2022/04/21 07:41:53;;;;;;;10.07;6.90;;;12.60;28.80;;;;;;4962810;28;20464;-83
2022/04/21 07:44:21;;;;;;;6.73;5.00;;;12.50;28.00;;;;;;4964302;28;20491;-82
2022/04/21 07:46:49;;;;;;;10.97;6.07;;;12.60;26.70;;;;;;4962653;28;20538;-84
2022/04/21 07:54:42;;;;;;;10.97;4.80;;;13.10;25.00;;;;;;4987163;28;20514;-82
2022/04/21 07:57:11;;;;;;;12.13;4.77;;;13.60;24.80;;;;;;4986175;28;20459;-81
2022/04/21 07:59:37;;;;;;;7.43;4.53;;;14.00;24.90;;;;;;4985828;28;20485;-82
2022/04/21 08:02:06;;;;;;;7.00;4.90;;;14.10;22.20;;;;;;4987896;28;20471;-82
2022/04/21 08:04:33;;;;;;;7.37;4.80;;;14.40;19.10;;;;;;4987757;28;20457;-81
2022/04/21 08:07:00;;;;;;;11.03;5.10;;;14.90;17.50;;;;;;4987442;28;20451;-82
2022/04/21 08:09:27;;;;;;;9.67;5.10;;;15.00;15.10;;;;;;4986769;28;20537;-83
2022/04/21 08:11:53;;;;;;;10.93;4.73;;;15.30;14.40;;;;;;4986510;28;20485;-83
2022/04/21 08:14:21;;;;;;;8.17;4.87;;;15.60;13.00;;;;;;4988077;28;20486;-83
2022/04/21 08:16:48;;;;;;;9.13;4.67;;;15.80;10.20;;;;;;4987305;28;20451;-81
2022/04/21 08:19:15;;;;;;;9.10;4.33;;;15.90;10.00;;;;;;4986795;28;20486;-82
2022/04/21 08:21:42;;;;;;;9.30;4.70;;;16.10;9.30;;;;;;4986060;28;20482;-82
2022/04/21 08:32:40;;;;;;;9.50;5.70;;;16.70;9.80;;;;;;4986675;28;20478;-81
2022/04/21 08:35:09;;;;;;;10.40;5.63;;;17.10;6.30;;;;;;4987387;28;20629;-83
2022/04/21 08:37:36;;;;;;;10.03;4.63;;;17.40;6.80;;;;;;4986976;28;20521;-83
2022/04/21 08:40:03;;;;;;;10.50;5.23;;;17.70;4.50;;;;;;4982276;28;20502;-82
2022/04/21 08:42:31;;;;;;;8.97;4.63;;;17.40;2.70;;;;;;4985141;28;20462;-83
2022/04/21 08:44:59;;;;;;;9.37;5.30;;;17.60;2.70;;;;;;4987486;28;20473;-82
2022/04/21 08:47:28;;;;;;;8.47;3.60;;;17.60;2.80;;;;;;4984866;28;20501;-83
2022/04/21 08:50:03;;;;;;;12.63;4.47;;;17.30;2.60;;;;;;4985331;28;20959;-82
2022/04/21 08:52:30;;;;;;;10.57;5.33;;;17.10;3.00;;;;;;4986893;28;20520;-83
2022/04/21 08:54:57;;;;;;;7.17;3.60;;;17.20;5.00;;;;;;4986996;28;20450;-82
2022/04/21 08:57:24;;;;;;;7.47;3.80;;;16.70;1.00;;;;;;4985530;28;20458;-82
2022/04/21 08:59:51;;;;;;;7.43;3.50;;;16.30;3.50;;;;;;4985871;28;20840;-83
2022/04/21 09:02:19;;;;;;;9.30;4.70;;;16.40;1.90;;;;;;4986241;28;20482;-82
2022/04/21 09:04:54;;;;;;;6.30;3.13;;;16.30;1.00;;;;;;4985936;28;20449;-85
2022/04/21 09:07:21;;;;;;;5.40;3.10;;;16.70;1.00;;;;;;4983797;28;20488;-85
2022/04/21 09:10:02;;;;;;;5.70;2.50;;;16.90;1.00;;;;;;4984013;28;20476;-83
2022/04/21 09:12:29;;;;;;;8.10;2.60;;;17.60;1.00;;;;;;4982609;28;20461;-84
2022/04/21 09:14:57;;;;;;;9.30;3.03;;;17.90;1.00;;;;;;4982466;28;20830;-85
2022/04/21 09:17:32;;;;;;;6.67;2.73;;;18.20;1.00;;;;;;4981979;28;20458;-85
2022/04/21 09:20:00;;;;;;;8.37;3.20;;;18.40;1.00;;;;;;4982347;28;20478;-85
2022/04/21 09:22:31;;;;;;;5.87;3.10;;;18.40;1.00;;;;;;4981362;28;20465;-84
2022/04/21 09:24:59;;;;;;;7.50;3.50;;;18.20;1.00;;;;;;4981505;28;20457;-85
2022/04/21 09:27:39;;;;;;;8.70;3.23;;;18.40;1.00;;;;;;4981702;28;20459;-85
2022/04/21 09:30:10;;;;;;;9.80;3.40;;;19.10;1.00;;;;;;4978858;28;20448;-85
2022/04/21 09:32:39;;;;;;;6.80;2.60;;;19.30;1.00;;;;;;4980429;28;20468;-84
2022/04/21 09:35:07;;;;;;;6.80;3.03;;;18.90;1.00;;;;;;4979943;28;20457;-85
2022/04/21 09:37:45;;;;;;;6.80;2.33;;;18.90;1.00;;;;;;4977377;28;20467;-83
2022/04/21 09:40:12;;;;;;;7.40;2.43;;;18.80;1.00;;;;;;4974752;28;20525;-84
2022/04/21 09:42:39;;;;;;;6.03;2.97;;;18.80;1.00;;;;;;4977832;28;20460;-84
2022/04/21 09:47:53;;;;;;;8.10;2.70;;;19.60;1.00;;;;;;4982756;28;20445;-83
2022/04/21 09:50:21;;;;;;;5.30;1.93;;;19.40;1.00;;;;;;4979899;28;20485;-79
2022/04/21 09:52:49;;;;;;;6.00;2.53;;;19.40;1.00;;;;;;4982571;28;20479;-81
2022/04/21 09:55:26;;;;;;;5.97;2.33;;;20.00;1.00;;;;;;4982922;28;20462;-81
2022/04/21 09:58:04;;;;;;;6.33;2.60;;;19.80;1.00;;;;;;4981534;28;20486;-82
2022/04/21 10:00:31;;;;;;;7.60;2.00;;;20.50;1.00;;;;;;4982453;28;20483;-83
2022/04/21 10:03:02;;;;;;;8.07;2.57;;;20.60;1.00;;;;;;4980462;28;20460;-82
2022/04/21 10:05:30;;;;;;;6.10;2.30;;;20.50;1.00;;;;;;4980089;28;20482;-81
2022/04/21 10:07:58;;;;;;;8.03;2.83;;;20.00;1.00;;;;;;4980277;28;20454;-82
2022/04/21 10:10:26;;;;;;;5.90;2.07;;;20.50;1.00;;;;;;4979622;28;20474;-81
2022/04/21 10:12:56;;;;;;;11.00;2.40;;;20.00;1.00;;;;;;4980026;28;20479;-81
2022/04/21 10:15:25;;;;;;;5.80;2.13;;;19.80;1.00;;;;;;4980029;28;20878;-82
2022/04/21 10:17:52;;;;;;;8.70;2.53;;;20.50;1.00;;;;;;4980103;28;20458;-81
2022/04/21 10:20:23;;;;;;;5.10;1.90;;;21.30;1.00;;;;;;4980104;28;20484;-82
2022/04/21 10:22:50;;;;;;;7.43;2.13;;;21.20;1.00;;;;;;4980479;28;20456;-83
2022/04/21 10:25:18;;;;;;;7.50;2.30;;;21.60;1.00;;;;;;4980379;28;20465;-82
2022/04/21 10:27:47;;;;;;;6.57;2.40;;;21.70;1.00;;;;;;4980655;28;20461;-82
2022/04/21 10:30:19;;;;;;;6.47;2.40;;;21.90;1.00;;;;;;4979670;28;20460;-83
2022/04/21 10:33:03;;;;;;;5.60;2.47;;;21.90;1.00;;;;;;4979270;28;20463;-81
2022/04/21 10:35:49;;;;;;;6.57;2.30;;;21.30;1.00;;;;;;4980334;28;21212;-82
2022/04/21 10:38:25;;;;;;;7.07;3.40;;;21.00;1.00;;;;;;4979250;28;20845;-82
2022/04/21 10:40:57;;;;;;;8.93;2.63;;;19.70;1.00;;;;;;4979813;28;20832;-82
2022/04/21 10:43:23;;;;;;;9.17;2.60;;;19.40;1.00;;;;;;4979392;28;20518;-82
2022/04/21 10:46:04;;;;;;;5.30;2.50;;;19.00;1.00;;;;;;4979781;28;20462;-81
2022/04/21 10:48:41;;;;;;;6.63;2.50;;;19.60;1.00;;;;;;4979413;28;20477;-82
2022/04/21 10:51:09;;;;;;;6.03;2.33;;;20.20;1.00;;;;;;4979455;28;20975;-82
2022/04/21 10:59:30;;;;;;;8.70;3.33;;;20.60;1.00;;;;;;4978570;28;20892;-82
2022/04/21 11:02:10;;;;;;;6.90;4.00;;;20.20;1.00;;;;;;4979452;28;20538;-82
2022/04/21 11:04:37;;;;;;;7.00;3.40;;;20.60;1.00;;;;;;4981516;28;20467;-81
2022/04/21 11:07:11;;;;;;;6.53;2.40;;;20.00;1.00;;;;;;4981726;28;20461;-81
2022/04/21 11:09:48;;;;;;;6.40;3.47;;;19.50;1.00;;;;;;4982323;28;20461;-81
2022/04/21 11:12:18;;;;;;;6.27;3.37;;;19.50;1.00;;;;;;4983912;28;20571;-82
2022/04/21 11:14:45;;;;;;;7.77;3.03;;;19.40;1.00;;;;;;4982657;28;20948;-81
2022/04/21 11:17:12;;;;;;;18.27;2.93;;;18.80;1.00;;;;;;4983624;28;20469;-82
2022/04/21 11:19:53;;;;;;;6.27;2.50;;;18.80;1.00;;;;;;4983020;28;20487;-82
2022/04/21 11:22:40;;;;;;;10.20;2.97;;;18.70;1.00;;;;;;4982954;28;20478;-81
2022/04/21 11:25:08;;;;;;;7.40;2.37;;;18.40;1.00;;;;;;4982971;28;20977;-81
2022/04/21 11:27:42;;;;;;;8.50;2.70;;;18.40;1.00;;;;;;4984678;28;20989;-82
2022/04/21 11:30:12;;;;;;;7.90;2.60;;;18.30;1.00;;;;;;4983646;28;20453;-83
2022/04/21 11:32:39;;;;;;;6.07;2.23;;;18.30;1.00;;;;;;4985461;28;20762;-83
2022/04/21 11:35:09;;;;;;;7.50;2.17;;;17.50;1.00;;;;;;4982109;28;20460;-81
2022/04/21 11:37:52;;;;;;;8.17;2.30;;;17.10;1.00;;;;;;4980803;28;20453;-80
2022/04/21 11:40:41;;;;;;;5.43;2.07;;;16.80;1.00;;;;;;4980780;28;20489;-80
2022/04/21 11:43:16;;;;;;;7.63;2.80;;;16.70;1.00;;;;;;4982007;28;20459;-80
2022/04/21 11:45:54;;;;;;;5.70;1.80;;;16.70;1.00;;;;;;4982659;28;20458;-81
2022/04/21 11:48:29;;;;;;;7.33;3.03;;;16.30;1.00;;;;;;4984144;28;20459;-84
2022/04/21 11:50:55;;;;;;;6.57;3.17;;;17.00;1.00;;;;;;4983340;28;20502;-83
2022/04/21 11:53:27;;;;;;;6.37;2.80;;;17.20;1.00;;;;;;4980101;28;20460;-84
2022/04/21 11:55:54;;;;;;;11.80;3.20;;;17.50;1.00;;;;;;4980166;28;20470;-84
2022/04/21 11:58:29;;;;;;;6.90;3.00;;;17.80;1.00;;;;;;4981646;28;20460;-84
2022/04/21 12:06:32;;;;;;;6.00;3.00;;;19.20;1.00;;;;;;4978416;28;20428;-83
2022/04/21 12:09:01;;;;;;;6.10;3.20;;;19.10;1.00;;;;;;4976978;28;20970;-83
2022/04/21 12:11:28;;;;;;;7.50;3.80;;;19.20;1.00;;;;;;4979554;28;20944;-84
2022/04/21 12:13:56;;;;;;;6.83;3.60;;;19.70;1.00;;;;;;4980226;28;20467;-83
2022/04/21 12:16:43;;;;;;;9.57;4.53;;;20.30;1.00;;;;;;4978986;28;20465;-84
2022/04/21 12:19:29;;;;;;;8.13;3.83;;;21.20;1.00;;;;;;4977803;28;20472;-84
2022/04/21 12:21:59;;;;;;;8.47;4.03;;;20.20;1.00;;;;;;4977440;28;20470;-84
2022/04/21 12:24:31;;;;;;;7.80;3.93;;;20.20;1.00;;;;;;4979680;28;20422;-83
2022/04/21 12:26:59;;;;;;;18.77;4.03;;;19.90;1.00;;;;;;4978585;28;20455;-84
2022/04/21 12:29:27;;;;;;;8.03;3.97;;;19.70;1.00;;;;;;4977295;28;20457;-84
2022/04/21 12:31:56;;;;;;;7.07;3.73;;;19.50;1.00;;;;;;4977764;28;20473;-84
2022/04/21 12:34:26;;;;;;;8.47;4.33;;;20.00;1.00;;;;;;4977869;28;20455;-84
2022/04/21 12:36:54;;;;;;;7.40;2.90;;;20.80;1.00;;;;;;4977879;28;20837;-84
2022/04/21 12:39:21;;;;;;;6.50;3.73;;;21.40;1.00;;;;;;4976618;28;20454;-84
2022/04/21 12:41:51;;;;;;;10.10;4.23;;;22.20;1.00;;;;;;4976152;28;20474;-84
2022/04/21 12:44:22;;;;;;;7.80;3.47;;;23.70;1.00;;;;;;4976823;28;20454;-84
2022/04/21 12:47:00;;;;;;;7.80;3.83;;;24.00;1.00;;;;;;4977665;28;20455;-84
2022/04/21 12:49:58;;;;;;;6.47;2.80;;;24.20;1.00;;;;;;4976172;28;20829;-84
2022/04/21 12:52:43;;;;;;;7.90;3.00;;;24.00;1.00;;;;;;4973350;28;20489;-84
2022/04/21 12:55:11;;;;;;;8.33;3.70;;;23.40;1.00;;;;;;4977046;28;20458;-84
2022/04/21 12:57:41;;;;;;;7.70;3.43;;;23.60;1.00;;;;;;4976904;28;20428;-84
2022/04/21 13:00:10;;;;;;;8.23;3.95;;;24.00;1.00;;;;;;4977733;28;20836;-81
2022/04/21 13:02:37;;;;;;;6.70;3.63;;;22.80;1.00;;;;;;4981930;28;20195;-82
2022/04/21 13:05:04;;;;;;;6.53;3.40;;;22.20;1.00;;;;;;4981308;28;20466;-82
2022/04/21 13:07:32;;;;;;;8.47;3.50;;;21.70;1.00;;;;;;4981371;28;20484;-81
2022/04/21 13:09:59;;;;;;;8.50;2.97;;;21.50;1.00;;;;;;4980461;28;20457;-81
2022/04/21 13:12:25;;;;;;;5.73;3.27;;;21.20;1.00;;;;;;4980202;28;20487;-82
2022/04/21 13:14:53;;;;;;;6.27;2.80;;;20.40;1.00;;;;;;4980865;28;20951;-82
2022/04/21 13:17:20;;;;;;;5.97;3.67;;;21.50;1.00;;;;;;4981574;28;20464;-81
2022/04/21 13:19:47;;;;;;;7.40;3.40;;;21.90;1.00;;;;;;4980820;28;20481;-81
2022/04/21 13:22:13;;;;;;;6.97;3.43;;;21.70;1.00;;;;;;4980611;28;20847;-81
2022/04/21 13:24:40;;;;;;;6.50;3.30;;;21.90;1.00;;;;;;4980119;28;20850;-81
2022/04/21 13:27:06;;;;;;;7.10;3.90;;;22.80;1.00;;;;;;4980134;28;20459;-82
2022/04/21 13:29:34;;;;;;;6.10;2.70;;;22.10;1.00;;;;;;4979801;28;20463;-82
2022/04/21 13:34:50;;;;;;;11.70;4.30;;;20.30;1.00;;;;;;4981885;28;20439;-81
2022/04/21 13:37:17;;;;;;;5.93;3.53;;;19.90;1.00;;;;;;4981510;28;20458;-82
2022/04/21 13:39:43;;;;;;;7.60;3.70;;;20.00;1.00;;;;;;4979186;28;20449;-81
2022/04/21 13:42:10;;;;;;;6.70;3.63;;;20.50;1.00;;;;;;4980272;28;20479;-82
2022/04/21 13:44:37;;;;;;;7.23;4.53;;;20.70;1.00;;;;;;4980092;28;20547;-81
2022/04/21 13:47:06;;;;;;;12.23;3.77;;;20.30;1.00;;;;;;4978916;28;20832;-82
2022/04/21 13:49:33;;;;;;;8.13;3.97;;;20.80;1.00;;;;;;4978325;28;20822;-82
2022/04/21 13:52:00;;;;;;;10.53;4.93;;;20.80;1.00;;;;;;4976655;23;20501;-84
2022/04/21 13:54:27;;;;;;;8.07;4.70;;;21.50;1.00;;;;;;4945438;29;20464;-81
2022/04/21 13:56:54;;;;;;;10.60;5.20;;;21.70;1.00;;;;;;4945898;29;20471;-82
2022/04/21 13:59:21;;;;;;;9.20;4.83;;;22.00;1.00;;;;;;4944529;29;20497;-81
2022/04/21 14:01:48;;;;;;;10.17;4.20;;;21.80;1.00;;;;;;4956898;29;20484;-82
2022/04/21 14:04:16;;;;;;;6.93;4.30;;;21.80;1.00;;;;;;4964872;28;20455;-83
2022/04/21 14:06:45;;;;;;;10.40;5.13;;;22.00;1.00;;;;;;4964648;28;20450;-82
2022/04/21 14:09:11;;;;;;;7.03;4.53;;;21.60;1.00;;;;;;4962750;28;20458;-81
2022/04/21 14:11:39;;;;;;;11.43;6.23;;;22.10;1.00;;;;;;4960521;28;20475;-81
2022/04/21 14:14:05;;;;;;;10.53;4.20;;;22.60;1.00;;;;;;4962500;28;20479;-81
2022/04/21 14:16:37;;;;;;;7.77;4.30;;;22.90;1.00;;;;;;4964390;28;20455;-82
2022/04/21 14:19:05;;;;;;;6.60;3.20;;;23.70;1.00;;;;;;4961637;28;20464;-81